sensor_id;sensor_type;location;lat;lon;timestamp;P1;durP1;ratioP1;P2;durP2;ratioP2
6679;SDS011;3376;42.664;23.346;2022-12-29T00:01:59;40.33;;;28.07;;
6679;SDS011;3376;42.664;23.346;2022-12-29T00:04:26;48.87;;;28.40;;
6679;SDS011;3376;42.664;23.346;2022-12-29T00:06:53;46.63;;;29.10;;
6679;SDS011;3376;42.664;23.346;2022-12-29T00:09:20;49.63;;;29.20;;
6679;SDS011;3376;42.664;23.346;2022-12-29T00:11:47;43.00;;;29.17;;
6679;SDS011;3376;42.664;23.346;2022-12-29T00:14:16;38.23;;;27.43;;
6679;SDS011;3376;42.664;23.346;2022-12-29T00:17:00;39.17;;;27.73;;
6679;SDS011;3376;42.664;23.346;2022-12-29T00:19:27;38.87;;;27.27;;
6679;SDS011;3376;42.664;23.346;2022-12-29T00:22:12;43.47;;;29.00;;
6679;SDS011;3376;42.664;23.346;2022-12-29T00:24:57;41.83;;;27.23;;
6679;SDS011;3376;42.664;23.346;2022-12-29T00:27:42;35.77;;;25.40;;
6679;SDS011;3376;42.664;23.346;2022-12-29T00:30:27;38.60;;;26.23;;
6679;SDS011;3376;42.664;23.346;2022-12-29T00:33:12;33.53;;;25.17;;
6679;SDS011;3376;42.664;23.346;2022-12-29T00:35:59;34.93;;;24.30;;
6679;SDS011;3376;42.664;23.346;2022-12-29T00:38:29;39.47;;;24.53;;
6679;SDS011;3376;42.664;23.346;2022-12-29T00:41:16;33.87;;;24.00;;
6679;SDS011;3376;42.664;23.346;2022-12-29T00:43:56;34.60;;;25.40;;
6679;SDS011;3376;42.664;23.346;2022-12-29T00:46:36;35.10;;;25.53;;
6679;SDS011;3376;42.664;23.346;2022-12-29T00:49:04;37.17;;;25.30;;
6679;SDS011;3376;42.664;23.346;2022-12-29T00:51:49;32.07;;;24.80;;
6679;SDS011;3376;42.664;23.346;2022-12-29T00:54:17;33.47;;;23.93;;
6679;SDS011;3376;42.664;23.346;2022-12-29T00:56:45;32.77;;;24.50;;
6679;SDS011;3376;42.664;23.346;2022-12-29T00:59:12;34.17;;;24.77;;
6679;SDS011;3376;42.664;23.346;2022-12-29T01:01:41;32.93;;;23.47;;
6679;SDS011;3376;42.664;23.346;2022-12-29T01:04:08;34.80;;;24.50;;
6679;SDS011;3376;42.664;23.346;2022-12-29T01:06:35;33.50;;;23.93;;
6679;SDS011;3376;42.664;23.346;2022-12-29T01:09:04;44.60;;;25.77;;
6679;SDS011;3376;42.664;23.346;2022-12-29T01:11:49;32.10;;;23.43;;
6679;SDS011;3376;42.664;23.346;2022-12-29T01:14:16;32.53;;;23.93;;
6679;SDS011;3376;42.664;23.346;2022-12-29T01:16:45;25.97;;;21.67;;
6679;SDS011;3376;42.664;23.346;2022-12-29T01:19:12;29.23;;;22.00;;
6679;SDS011;3376;42.664;23.346;2022-12-29T01:21:40;26.90;;;21.93;;
6679;SDS011;3376;42.664;23.346;2022-12-29T01:24:07;28.67;;;22.23;;
6679;SDS011;3376;42.664;23.346;2022-12-29T01:26:33;28.20;;;21.13;;
6679;SDS011;3376;42.664;23.346;2022-12-29T01:29:00;26.97;;;20.80;;
6679;SDS011;3376;42.664;23.346;2022-12-29T01:31:27;27.37;;;20.53;;
6679;SDS011;3376;42.664;23.346;2022-12-29T01:33:55;34.13;;;22.83;;
6679;SDS011;3376;42.664;23.346;2022-12-29T01:36:22;30.93;;;21.43;;
6679;SDS011;3376;42.664;23.346;2022-12-29T01:38:50;24.97;;;20.67;;
6679;SDS011;3376;42.664;23.346;2022-12-29T01:41:16;28.77;;;21.40;;
6679;SDS011;3376;42.664;23.346;2022-12-29T01:43:44;30.10;;;21.77;;
6679;SDS011;3376;42.664;23.346;2022-12-29T01:46:19;25.60;;;20.73;;
6679;SDS011;3376;42.664;23.346;2022-12-29T01:48:51;29.73;;;21.40;;
6679;SDS011;3376;42.664;23.346;2022-12-29T01:51:22;30.30;;;22.77;;
6679;SDS011;3376;42.664;23.346;2022-12-29T01:53:51;27.90;;;21.37;;
6679;SDS011;3376;42.664;23.346;2022-12-29T01:56:20;22.17;;;18.47;;
6679;SDS011;3376;42.664;23.346;2022-12-29T01:58:48;21.07;;;18.13;;
6679;SDS011;3376;42.664;23.346;2022-12-29T02:01:19;26.07;;;21.07;;
6679;SDS011;3376;42.664;23.346;2022-12-29T02:03:47;25.17;;;19.83;;
6679;SDS011;3376;42.664;23.346;2022-12-29T02:06:16;23.93;;;20.07;;
6679;SDS011;3376;42.664;23.346;2022-12-29T02:08:49;20.17;;;17.17;;
6679;SDS011;3376;42.664;23.346;2022-12-29T02:11:18;19.87;;;17.00;;
6679;SDS011;3376;42.664;23.346;2022-12-29T02:13:46;22.40;;;18.10;;
6679;SDS011;3376;42.664;23.346;2022-12-29T02:16:20;22.60;;;19.27;;
6679;SDS011;3376;42.664;23.346;2022-12-29T02:19:02;22.53;;;17.70;;
6679;SDS011;3376;42.664;23.346;2022-12-29T02:22:01;17.97;;;16.10;;
6679;SDS011;3376;42.664;23.346;2022-12-29T02:27:56;16.50;;;14.70;;
6679;SDS011;3376;42.664;23.346;2022-12-29T02:30:39;18.17;;;14.10;;
6679;SDS011;3376;42.664;23.346;2022-12-29T02:33:13;18.90;;;15.57;;
6679;SDS011;3376;42.664;23.346;2022-12-29T02:35:50;16.30;;;14.60;;
6679;SDS011;3376;42.664;23.346;2022-12-29T02:38:25;17.23;;;15.43;;
6679;SDS011;3376;42.664;23.346;2022-12-29T02:41:05;18.27;;;15.67;;
6679;SDS011;3376;42.664;23.346;2022-12-29T02:43:39;20.73;;;16.07;;
6679;SDS011;3376;42.664;23.346;2022-12-29T02:46:12;17.07;;;15.40;;
6679;SDS011;3376;42.664;23.346;2022-12-29T02:48:46;17.70;;;15.83;;
6679;SDS011;3376;42.664;23.346;2022-12-29T02:51:21;16.03;;;14.50;;
6679;SDS011;3376;42.664;23.346;2022-12-29T02:53:52;20.43;;;16.07;;
6679;SDS011;3376;42.664;23.346;2022-12-29T02:56:38;18.97;;;16.97;;
6679;SDS011;3376;42.664;23.346;2022-12-29T02:59:04;21.57;;;16.87;;
6679;SDS011;3376;42.664;23.346;2022-12-29T03:01:36;23.83;;;18.13;;
6679;SDS011;3376;42.664;23.346;2022-12-29T03:04:29;21.70;;;16.83;;
6679;SDS011;3376;42.664;23.346;2022-12-29T03:07:06;21.47;;;16.43;;
6679;SDS011;3376;42.664;23.346;2022-12-29T03:09:41;20.50;;;17.47;;
6679;SDS011;3376;42.664;23.346;2022-12-29T03:12:20;20.33;;;17.27;;
6679;SDS011;3376;42.664;23.346;2022-12-29T03:15:12;19.87;;;17.03;;
6679;SDS011;3376;42.664;23.346;2022-12-29T03:18:04;19.03;;;15.83;;
6679;SDS011;3376;42.664;23.346;2022-12-29T03:20:37;19.33;;;17.23;;
6679;SDS011;3376;42.664;23.346;2022-12-29T03:23:05;20.77;;;18.07;;
6679;SDS011;3376;42.664;23.346;2022-12-29T03:25:33;17.63;;;15.70;;
6679;SDS011;3376;42.664;23.346;2022-12-29T03:28:05;24.20;;;18.60;;
6679;SDS011;3376;42.664;23.346;2022-12-29T03:30:35;20.57;;;17.23;;
6679;SDS011;3376;42.664;23.346;2022-12-29T03:33:07;18.93;;;16.93;;
6679;SDS011;3376;42.664;23.346;2022-12-29T03:35:37;27.20;;;18.30;;
6679;SDS011;3376;42.664;23.346;2022-12-29T03:38:08;23.53;;;18.00;;
6679;SDS011;3376;42.664;23.346;2022-12-29T03:40:40;19.37;;;17.37;;
6679;SDS011;3376;42.664;23.346;2022-12-29T03:43:10;24.63;;;18.10;;
6679;SDS011;3376;42.664;23.346;2022-12-29T03:45:38;22.67;;;17.37;;
6679;SDS011;3376;42.664;23.346;2022-12-29T03:48:07;19.47;;;17.20;;
6679;SDS011;3376;42.664;23.346;2022-12-29T03:50:34;21.03;;;16.17;;
6679;SDS011;3376;42.664;23.346;2022-12-29T03:53:00;20.57;;;16.90;;
6679;SDS011;3376;42.664;23.346;2022-12-29T03:55:27;23.60;;;17.77;;
6679;SDS011;3376;42.664;23.346;2022-12-29T03:57:54;23.73;;;16.40;;
6679;SDS011;3376;42.664;23.346;2022-12-29T04:00:21;25.93;;;17.57;;
6679;SDS011;3376;42.664;23.346;2022-12-29T04:02:47;19.20;;;16.77;;
6679;SDS011;3376;42.664;23.346;2022-12-29T04:05:15;20.50;;;16.10;;
6679;SDS011;3376;42.664;23.346;2022-12-29T04:07:42;25.23;;;16.47;;
6679;SDS011;3376;42.664;23.346;2022-12-29T04:10:09;18.03;;;15.70;;
6679;SDS011;3376;42.664;23.346;2022-12-29T04:12:36;25.77;;;17.13;;
6679;SDS011;3376;42.664;23.346;2022-12-29T04:15:03;20.00;;;15.63;;
6679;SDS011;3376;42.664;23.346;2022-12-29T04:17:30;20.50;;;15.70;;
6679;SDS011;3376;42.664;23.346;2022-12-29T04:19:57;21.53;;;16.07;;
6679;SDS011;3376;42.664;23.346;2022-12-29T04:22:39;21.73;;;17.33;;
6679;SDS011;3376;42.664;23.346;2022-12-29T04:25:06;17.60;;;15.90;;
6679;SDS011;3376;42.664;23.346;2022-12-29T04:27:33;21.83;;;16.53;;
6679;SDS011;3376;42.664;23.346;2022-12-29T04:30:00;17.47;;;15.63;;
6679;SDS011;3376;42.664;23.346;2022-12-29T04:32:27;21.97;;;16.80;;
6679;SDS011;3376;42.664;23.346;2022-12-29T04:34:53;22.60;;;17.00;;
6679;SDS011;3376;42.664;23.346;2022-12-29T04:37:20;22.87;;;17.60;;
6679;SDS011;3376;42.664;23.346;2022-12-29T04:39:48;24.40;;;17.43;;
6679;SDS011;3376;42.664;23.346;2022-12-29T04:42:15;25.60;;;19.70;;
6679;SDS011;3376;42.664;23.346;2022-12-29T04:44:42;26.57;;;19.97;;
6679;SDS011;3376;42.664;23.346;2022-12-29T04:47:08;23.20;;;17.43;;
6679;SDS011;3376;42.664;23.346;2022-12-29T04:49:35;21.60;;;17.87;;
6679;SDS011;3376;42.664;23.346;2022-12-29T04:52:02;21.57;;;16.17;;
6679;SDS011;3376;42.664;23.346;2022-12-29T04:54:29;23.13;;;17.63;;
6679;SDS011;3376;42.664;23.346;2022-12-29T04:56:57;24.30;;;17.17;;
6679;SDS011;3376;42.664;23.346;2022-12-29T04:59:23;20.17;;;16.07;;
6679;SDS011;3376;42.664;23.346;2022-12-29T05:01:50;17.90;;;15.60;;
6679;SDS011;3376;42.664;23.346;2022-12-29T05:04:17;18.43;;;16.03;;
6679;SDS011;3376;42.664;23.346;2022-12-29T05:06:44;25.77;;;18.67;;
6679;SDS011;3376;42.664;23.346;2022-12-29T05:09:10;26.40;;;18.03;;
6679;SDS011;3376;42.664;23.346;2022-12-29T05:11:37;21.97;;;17.67;;
6679;SDS011;3376;42.664;23.346;2022-12-29T05:14:05;23.33;;;17.63;;
6679;SDS011;3376;42.664;23.346;2022-12-29T05:16:32;20.83;;;18.43;;
6679;SDS011;3376;42.664;23.346;2022-12-29T05:18:59;20.50;;;18.23;;
6679;SDS011;3376;42.664;23.346;2022-12-29T05:21:26;21.03;;;16.60;;
6679;SDS011;3376;42.664;23.346;2022-12-29T05:23:52;23.33;;;19.20;;
6679;SDS011;3376;42.664;23.346;2022-12-29T05:26:19;24.80;;;17.97;;
6679;SDS011;3376;42.664;23.346;2022-12-29T05:28:46;28.33;;;17.43;;
6679;SDS011;3376;42.664;23.346;2022-12-29T05:31:14;23.70;;;19.17;;
6679;SDS011;3376;42.664;23.346;2022-12-29T05:33:40;24.23;;;17.93;;
6679;SDS011;3376;42.664;23.346;2022-12-29T05:36:08;22.60;;;18.97;;
6679;SDS011;3376;42.664;23.346;2022-12-29T05:38:35;23.37;;;19.33;;
6679;SDS011;3376;42.664;23.346;2022-12-29T05:41:02;21.13;;;17.47;;
6679;SDS011;3376;42.664;23.346;2022-12-29T05:43:29;33.40;;;16.77;;
6679;SDS011;3376;42.664;23.346;2022-12-29T05:45:56;23.77;;;18.20;;
6679;SDS011;3376;42.664;23.346;2022-12-29T05:48:25;22.20;;;17.93;;
6679;SDS011;3376;42.664;23.346;2022-12-29T05:50:51;26.93;;;21.43;;
6679;SDS011;3376;42.664;23.346;2022-12-29T05:53:18;24.77;;;20.40;;
6679;SDS011;3376;42.664;23.346;2022-12-29T05:55:46;28.90;;;22.93;;
6679;SDS011;3376;42.664;23.346;2022-12-29T05:58:13;27.97;;;21.07;;
6679;SDS011;3376;42.664;23.346;2022-12-29T06:00:40;29.83;;;20.93;;
6679;SDS011;3376;42.664;23.346;2022-12-29T06:03:07;28.93;;;20.77;;
6679;SDS011;3376;42.664;23.346;2022-12-29T06:05:36;25.27;;;19.83;;
6679;SDS011;3376;42.664;23.346;2022-12-29T06:08:03;28.63;;;20.73;;
6679;SDS011;3376;42.664;23.346;2022-12-29T06:10:30;29.30;;;21.33;;
6679;SDS011;3376;42.664;23.346;2022-12-29T06:12:57;31.47;;;22.20;;
6679;SDS011;3376;42.664;23.346;2022-12-29T06:15:23;26.50;;;21.20;;
6679;SDS011;3376;42.664;23.346;2022-12-29T06:17:50;32.37;;;22.33;;
6679;SDS011;3376;42.664;23.346;2022-12-29T06:20:17;32.03;;;22.13;;
6679;SDS011;3376;42.664;23.346;2022-12-29T06:22:45;25.40;;;21.57;;
6679;SDS011;3376;42.664;23.346;2022-12-29T06:25:12;26.73;;;18.87;;
6679;SDS011;3376;42.664;23.346;2022-12-29T06:27:39;27.43;;;20.70;;
6679;SDS011;3376;42.664;23.346;2022-12-29T06:30:06;31.93;;;22.67;;
6679;SDS011;3376;42.664;23.346;2022-12-29T06:32:35;28.50;;;22.70;;
6679;SDS011;3376;42.664;23.346;2022-12-29T06:35:01;33.00;;;21.07;;
6679;SDS011;3376;42.664;23.346;2022-12-29T06:37:28;28.17;;;20.57;;
6679;SDS011;3376;42.664;23.346;2022-12-29T06:39:57;23.10;;;20.73;;
6679;SDS011;3376;42.664;23.346;2022-12-29T06:42:24;31.23;;;20.73;;
6679;SDS011;3376;42.664;23.346;2022-12-29T06:44:51;30.50;;;22.80;;
6679;SDS011;3376;42.664;23.346;2022-12-29T06:47:18;33.10;;;21.33;;
6679;SDS011;3376;42.664;23.346;2022-12-29T06:49:45;29.90;;;22.00;;
6679;SDS011;3376;42.664;23.346;2022-12-29T06:52:11;33.50;;;23.10;;
6679;SDS011;3376;42.664;23.346;2022-12-29T06:54:38;29.27;;;21.80;;
6679;SDS011;3376;42.664;23.346;2022-12-29T06:57:06;31.33;;;22.80;;
6679;SDS011;3376;42.664;23.346;2022-12-29T06:59:33;29.10;;;22.30;;
6679;SDS011;3376;42.664;23.346;2022-12-29T07:02:00;29.27;;;22.63;;
6679;SDS011;3376;42.664;23.346;2022-12-29T07:04:28;29.33;;;21.97;;
6679;SDS011;3376;42.664;23.346;2022-12-29T07:06:54;26.00;;;21.87;;
6679;SDS011;3376;42.664;23.346;2022-12-29T07:09:21;27.17;;;21.50;;
6679;SDS011;3376;42.664;23.346;2022-12-29T07:11:48;26.77;;;21.23;;
6679;SDS011;3376;42.664;23.346;2022-12-29T07:14:16;28.77;;;21.33;;
6679;SDS011;3376;42.664;23.346;2022-12-29T07:16:43;29.13;;;23.00;;
6679;SDS011;3376;42.664;23.346;2022-12-29T07:19:10;32.13;;;22.80;;
6679;SDS011;3376;42.664;23.346;2022-12-29T07:21:37;25.53;;;21.37;;
6679;SDS011;3376;42.664;23.346;2022-12-29T07:24:04;25.53;;;21.33;;
6679;SDS011;3376;42.664;23.346;2022-12-29T07:26:31;27.17;;;20.63;;
6679;SDS011;3376;42.664;23.346;2022-12-29T07:28:59;24.67;;;21.77;;
6679;SDS011;3376;42.664;23.346;2022-12-29T07:31:28;25.00;;;19.90;;
6679;SDS011;3376;42.664;23.346;2022-12-29T07:33:54;23.17;;;20.60;;
6679;SDS011;3376;42.664;23.346;2022-12-29T07:36:21;24.97;;;21.27;;
6679;SDS011;3376;42.664;23.346;2022-12-29T07:38:48;22.67;;;20.57;;
6679;SDS011;3376;42.664;23.346;2022-12-29T07:41:15;23.60;;;21.00;;
6679;SDS011;3376;42.664;23.346;2022-12-29T07:43:41;24.07;;;21.87;;
6679;SDS011;3376;42.664;23.346;2022-12-29T07:46:08;22.97;;;20.87;;
6679;SDS011;3376;42.664;23.346;2022-12-29T07:48:37;23.80;;;21.37;;
6679;SDS011;3376;42.664;23.346;2022-12-29T07:51:03;23.23;;;20.80;;
6679;SDS011;3376;42.664;23.346;2022-12-29T07:53:31;22.50;;;20.17;;
6679;SDS011;3376;42.664;23.346;2022-12-29T07:55:58;22.77;;;20.23;;
6679;SDS011;3376;42.664;23.346;2022-12-29T07:58:25;24.50;;;19.63;;
6679;SDS011;3376;42.664;23.346;2022-12-29T08:00:52;24.00;;;21.30;;
6679;SDS011;3376;42.664;23.346;2022-12-29T08:03:20;22.47;;;20.40;;
6679;SDS011;3376;42.664;23.346;2022-12-29T08:05:48;23.17;;;20.77;;
6679;SDS011;3376;42.664;23.346;2022-12-29T08:08:15;21.70;;;19.57;;
6679;SDS011;3376;42.664;23.346;2022-12-29T08:10:41;23.33;;;21.03;;
6679;SDS011;3376;42.664;23.346;2022-12-29T08:13:08;21.93;;;19.83;;
6679;SDS011;3376;42.664;23.346;2022-12-29T08:15:35;20.60;;;18.50;;
6679;SDS011;3376;42.664;23.346;2022-12-29T08:18:03;21.70;;;19.70;;
6679;SDS011;3376;42.664;23.346;2022-12-29T08:20:31;20.23;;;18.50;;
6679;SDS011;3376;42.664;23.346;2022-12-29T08:22:59;22.53;;;20.13;;
6679;SDS011;3376;42.664;23.346;2022-12-29T08:25:26;19.33;;;17.83;;
6679;SDS011;3376;42.664;23.346;2022-12-29T08:27:52;19.87;;;17.00;;
6679;SDS011;3376;42.664;23.346;2022-12-29T08:30:19;21.73;;;19.93;;
6679;SDS011;3376;42.664;23.346;2022-12-29T08:32:46;27.93;;;21.80;;
6679;SDS011;3376;42.664;23.346;2022-12-29T08:35:13;22.70;;;20.47;;
6679;SDS011;3376;42.664;23.346;2022-12-29T08:37:39;23.83;;;19.67;;
6679;SDS011;3376;42.664;23.346;2022-12-29T08:40:08;28.57;;;19.57;;
6679;SDS011;3376;42.664;23.346;2022-12-29T08:42:35;21.77;;;19.73;;
6679;SDS011;3376;42.664;23.346;2022-12-29T08:45:02;22.43;;;20.00;;
6679;SDS011;3376;42.664;23.346;2022-12-29T08:47:30;21.57;;;19.20;;
6679;SDS011;3376;42.664;23.346;2022-12-29T08:49:56;24.20;;;20.57;;
6679;SDS011;3376;42.664;23.346;2022-12-29T08:52:23;23.50;;;21.43;;
6679;SDS011;3376;42.664;23.346;2022-12-29T08:54:50;22.13;;;20.23;;
6679;SDS011;3376;42.664;23.346;2022-12-29T08:57:18;21.30;;;19.30;;
6679;SDS011;3376;42.664;23.346;2022-12-29T08:59:44;21.60;;;19.47;;
6679;SDS011;3376;42.664;23.346;2022-12-29T09:02:11;20.43;;;18.87;;
6679;SDS011;3376;42.664;23.346;2022-12-29T09:04:38;21.83;;;19.77;;
6679;SDS011;3376;42.664;23.346;2022-12-29T09:07:05;20.40;;;18.27;;
6679;SDS011;3376;42.664;23.346;2022-12-29T09:09:32;19.73;;;18.03;;
6679;SDS011;3376;42.664;23.346;2022-12-29T09:11:59;19.53;;;17.83;;
6679;SDS011;3376;42.664;23.346;2022-12-29T09:14:27;22.80;;;20.87;;
6679;SDS011;3376;42.664;23.346;2022-12-29T09:16:54;20.73;;;18.80;;
6679;SDS011;3376;42.664;23.346;2022-12-29T09:19:38;25.50;;;19.00;;
6679;SDS011;3376;42.664;23.346;2022-12-29T09:22:05;20.90;;;19.10;;
6679;SDS011;3376;42.664;23.346;2022-12-29T09:24:32;20.33;;;18.53;;
6679;SDS011;3376;42.664;23.346;2022-12-29T09:26:58;21.20;;;19.27;;
6679;SDS011;3376;42.664;23.346;2022-12-29T09:29:25;18.90;;;17.40;;
6679;SDS011;3376;42.664;23.346;2022-12-29T09:31:53;20.10;;;18.17;;
6679;SDS011;3376;42.664;23.346;2022-12-29T09:34:20;20.57;;;18.57;;
6679;SDS011;3376;42.664;23.346;2022-12-29T09:36:47;20.63;;;18.77;;
6679;SDS011;3376;42.664;23.346;2022-12-29T09:39:13;21.67;;;19.70;;
6679;SDS011;3376;42.664;23.346;2022-12-29T09:41:41;20.87;;;19.03;;
6679;SDS011;3376;42.664;23.346;2022-12-29T09:44:16;22.23;;;19.43;;
6679;SDS011;3376;42.664;23.346;2022-12-29T09:46:51;25.20;;;22.27;;
6679;SDS011;3376;42.664;23.346;2022-12-29T09:49:24;23.47;;;21.03;;
6679;SDS011;3376;42.664;23.346;2022-12-29T09:51:54;26.37;;;23.67;;
6679;SDS011;3376;42.664;23.346;2022-12-29T09:54:30;21.80;;;20.00;;
6679;SDS011;3376;42.664;23.346;2022-12-29T09:57:15;21.23;;;19.33;;
6679;SDS011;3376;42.664;23.346;2022-12-29T09:59:46;19.57;;;18.20;;
6679;SDS011;3376;42.664;23.346;2022-12-29T10:02:29;20.13;;;18.40;;
6679;SDS011;3376;42.664;23.346;2022-12-29T10:05:00;21.20;;;19.37;;
6679;SDS011;3376;42.664;23.346;2022-12-29T10:07:36;19.47;;;17.97;;
6679;SDS011;3376;42.664;23.346;2022-12-29T10:10:11;21.87;;;19.37;;
6679;SDS011;3376;42.664;23.346;2022-12-29T10:12:50;20.35;;;18.67;;
6679;SDS011;3376;42.664;23.346;2022-12-29T10:15:29;22.38;;;20.35;;
6679;SDS011;3376;42.664;23.346;2022-12-29T10:18:18;20.65;;;18.80;;
6679;SDS011;3376;42.664;23.346;2022-12-29T10:20:56;19.98;;;18.38;;
6679;SDS011;3376;42.664;23.346;2022-12-29T10:23:27;21.00;;;19.15;;
6679;SDS011;3376;42.664;23.346;2022-12-29T10:25:58;21.58;;;19.40;;
6679;SDS011;3376;42.664;23.346;2022-12-29T10:28:30;20.30;;;18.80;;
6679;SDS011;3376;42.664;23.346;2022-12-29T10:31:02;19.48;;;17.63;;
6679;SDS011;3376;42.664;23.346;2022-12-29T10:33:35;20.95;;;18.88;;
6679;SDS011;3376;42.664;23.346;2022-12-29T10:36:09;20.55;;;18.73;;
6679;SDS011;3376;42.664;23.346;2022-12-29T10:38:42;20.00;;;17.95;;
6679;SDS011;3376;42.664;23.346;2022-12-29T10:41:15;20.00;;;17.95;;
6679;SDS011;3376;42.664;23.346;2022-12-29T10:43:47;19.80;;;18.00;;
6679;SDS011;3376;42.664;23.346;2022-12-29T10:46:18;20.48;;;18.88;;
6679;SDS011;3376;42.664;23.346;2022-12-29T10:48:49;20.48;;;18.90;;
6679;SDS011;3376;42.664;23.346;2022-12-29T10:51:17;21.65;;;19.48;;
6679;SDS011;3376;42.664;23.346;2022-12-29T10:53:48;21.70;;;19.70;;
6679;SDS011;3376;42.664;23.346;2022-12-29T10:56:21;21.70;;;19.75;;
6679;SDS011;3376;42.664;23.346;2022-12-29T10:58:54;21.70;;;19.85;;
6679;SDS011;3376;42.664;23.346;2022-12-29T11:01:23;21.63;;;19.55;;
6679;SDS011;3376;42.664;23.346;2022-12-29T11:03:59;24.13;;;22.15;;
6679;SDS011;3376;42.664;23.346;2022-12-29T11:06:30;24.95;;;22.58;;
6679;SDS011;3376;42.664;23.346;2022-12-29T11:08:59;25.45;;;23.08;;
6679;SDS011;3376;42.664;23.346;2022-12-29T11:11:34;22.63;;;20.80;;
6679;SDS011;3376;42.664;23.346;2022-12-29T11:14:07;24.45;;;22.27;;
6679;SDS011;3376;42.664;23.346;2022-12-29T11:16:38;20.73;;;18.95;;
6679;SDS011;3376;42.664;23.346;2022-12-29T11:19:12;21.27;;;19.42;;
6679;SDS011;3376;42.664;23.346;2022-12-29T11:21:46;23.27;;;21.27;;
6679;SDS011;3376;42.664;23.346;2022-12-29T11:24:18;21.17;;;19.25;;
6679;SDS011;3376;42.664;23.346;2022-12-29T11:26:48;20.83;;;19.30;;
6679;SDS011;3376;42.664;23.346;2022-12-29T11:29:21;22.42;;;20.17;;
6679;SDS011;3376;42.664;23.346;2022-12-29T11:31:50;21.88;;;19.77;;
6679;SDS011;3376;42.664;23.346;2022-12-29T11:34:21;22.15;;;20.30;;
6679;SDS011;3376;42.664;23.346;2022-12-29T11:36:51;22.08;;;20.17;;
6679;SDS011;3376;42.664;23.346;2022-12-29T11:39:23;24.00;;;21.77;;
6679;SDS011;3376;42.664;23.346;2022-12-29T11:42:05;21.88;;;20.20;;
6679;SDS011;3376;42.664;23.346;2022-12-29T11:44:41;23.05;;;20.95;;
6679;SDS011;3376;42.664;23.346;2022-12-29T11:47:11;21.63;;;19.77;;
6679;SDS011;3376;42.664;23.346;2022-12-29T11:49:50;19.90;;;18.25;;
6679;SDS011;3376;42.664;23.346;2022-12-29T11:52:21;21.33;;;19.40;;
6679;SDS011;3376;42.664;23.346;2022-12-29T11:54:49;20.23;;;18.73;;
6679;SDS011;3376;42.664;23.346;2022-12-29T11:57:18;21.33;;;19.53;;
6679;SDS011;3376;42.664;23.346;2022-12-29T11:59:49;20.67;;;18.40;;
6679;SDS011;3376;42.664;23.346;2022-12-29T12:05:13;20.67;;;18.93;;
6679;SDS011;3376;42.664;23.346;2022-12-29T12:07:46;22.10;;;19.97;;
6679;SDS011;3376;42.664;23.346;2022-12-29T12:10:17;21.63;;;19.47;;
6679;SDS011;3376;42.664;23.346;2022-12-29T12:12:51;32.03;;;28.73;;
6679;SDS011;3376;42.664;23.346;2022-12-29T12:15:23;24.10;;;21.67;;
6679;SDS011;3376;42.664;23.346;2022-12-29T12:17:54;22.50;;;20.50;;
6679;SDS011;3376;42.664;23.346;2022-12-29T12:20:28;22.17;;;19.97;;
6679;SDS011;3376;42.664;23.346;2022-12-29T12:23:07;22.47;;;19.73;;
6679;SDS011;3376;42.664;23.346;2022-12-29T12:25:45;21.97;;;19.93;;
6679;SDS011;3376;42.664;23.346;2022-12-29T12:28:20;23.87;;;21.27;;
6679;SDS011;3376;42.664;23.346;2022-12-29T12:30:53;22.23;;;20.27;;
6679;SDS011;3376;42.664;23.346;2022-12-29T12:33:24;23.37;;;20.27;;
6679;SDS011;3376;42.664;23.346;2022-12-29T12:36:01;23.00;;;20.63;;
6679;SDS011;3376;42.664;23.346;2022-12-29T12:38:42;25.90;;;19.80;;
6679;SDS011;3376;42.664;23.346;2022-12-29T12:41:18;22.50;;;20.43;;
6679;SDS011;3376;42.664;23.346;2022-12-29T12:43:52;20.63;;;18.53;;
6679;SDS011;3376;42.664;23.346;2022-12-29T12:46:37;19.33;;;17.67;;
6679;SDS011;3376;42.664;23.346;2022-12-29T12:49:36;21.17;;;18.57;;
6679;SDS011;3376;42.664;23.346;2022-12-29T12:52:29;20.40;;;18.53;;
6679;SDS011;3376;42.664;23.346;2022-12-29T12:55:10;19.03;;;17.47;;
6679;SDS011;3376;42.664;23.346;2022-12-29T12:57:50;18.93;;;17.20;;
6679;SDS011;3376;42.664;23.346;2022-12-29T13:00:23;20.50;;;18.30;;
6679;SDS011;3376;42.664;23.346;2022-12-29T13:02:56;21.70;;;19.63;;
6679;SDS011;3376;42.664;23.346;2022-12-29T13:05:39;21.93;;;19.83;;
6679;SDS011;3376;42.664;23.346;2022-12-29T13:08:25;22.00;;;19.98;;
6679;SDS011;3376;42.664;23.346;2022-12-29T13:11:09;20.92;;;18.83;;
6679;SDS011;3376;42.664;23.346;2022-12-29T13:13:48;21.52;;;19.40;;
6679;SDS011;3376;42.664;23.346;2022-12-29T13:16:28;20.13;;;18.05;;
6679;SDS011;3376;42.664;23.346;2022-12-29T13:19:08;19.98;;;18.15;;
6679;SDS011;3376;42.664;23.346;2022-12-29T13:21:45;22.02;;;19.73;;
6679;SDS011;3376;42.664;23.346;2022-12-29T13:24:21;21.23;;;19.05;;
6679;SDS011;3376;42.664;23.346;2022-12-29T13:26:53;25.23;;;19.70;;
6679;SDS011;3376;42.664;23.346;2022-12-29T13:29:28;22.63;;;20.58;;
6679;SDS011;3376;42.664;23.346;2022-12-29T13:32:02;21.92;;;19.77;;
6679;SDS011;3376;42.664;23.346;2022-12-29T13:34:49;19.75;;;17.77;;
6679;SDS011;3376;42.664;23.346;2022-12-29T13:37:29;25.70;;;23.20;;
6679;SDS011;3376;42.664;23.346;2022-12-29T13:40:03;22.92;;;21.13;;
6679;SDS011;3376;42.664;23.346;2022-12-29T13:42:39;23.92;;;21.40;;
6679;SDS011;3376;42.664;23.346;2022-12-29T13:45:09;23.13;;;21.10;;
6679;SDS011;3376;42.664;23.346;2022-12-29T13:47:40;24.50;;;22.33;;
6679;SDS011;3376;42.664;23.346;2022-12-29T13:50:12;24.87;;;22.00;;
6679;SDS011;3376;42.664;23.346;2022-12-29T13:52:43;23.23;;;20.83;;
6679;SDS011;3376;42.664;23.346;2022-12-29T13:55:22;25.13;;;21.57;;
6679;SDS011;3376;42.664;23.346;2022-12-29T13:57:54;25.07;;;22.67;;
6679;SDS011;3376;42.664;23.346;2022-12-29T14:00:27;25.00;;;22.13;;
6679;SDS011;3376;42.664;23.346;2022-12-29T14:03:04;23.37;;;20.90;;
6679;SDS011;3376;42.664;23.346;2022-12-29T14:05:45;31.00;;;22.83;;
6679;SDS011;3376;42.664;23.346;2022-12-29T14:08:31;29.43;;;23.10;;
6679;SDS011;3376;42.664;23.346;2022-12-29T14:11:05;28.43;;;23.27;;
6679;SDS011;3376;42.664;23.346;2022-12-29T14:13:36;24.80;;;22.23;;
6679;SDS011;3376;42.664;23.346;2022-12-29T14:16:05;26.80;;;22.53;;
6679;SDS011;3376;42.664;23.346;2022-12-29T14:18:33;24.53;;;21.87;;
6679;SDS011;3376;42.664;23.346;2022-12-29T14:21:08;28.73;;;21.50;;
6679;SDS011;3376;42.664;23.346;2022-12-29T14:23:44;38.03;;;22.17;;
6679;SDS011;3376;42.664;23.346;2022-12-29T14:26:15;26.33;;;21.70;;
6679;SDS011;3376;42.664;23.346;2022-12-29T14:28:44;29.07;;;21.30;;
6679;SDS011;3376;42.664;23.346;2022-12-29T14:36:55;25.20;;;21.10;;
6679;SDS011;3376;42.664;23.346;2022-12-29T14:39:29;25.27;;;20.07;;
6679;SDS011;3376;42.664;23.346;2022-12-29T14:42:00;30.67;;;21.30;;
6679;SDS011;3376;42.664;23.346;2022-12-29T14:44:29;26.13;;;21.83;;
6679;SDS011;3376;42.664;23.346;2022-12-29T14:46:57;29.00;;;22.37;;
6679;SDS011;3376;42.664;23.346;2022-12-29T14:49:27;27.90;;;21.17;;
6679;SDS011;3376;42.664;23.346;2022-12-29T14:52:04;23.87;;;19.07;;
6679;SDS011;3376;42.664;23.346;2022-12-29T14:54:47;25.33;;;18.87;;
6679;SDS011;3376;42.664;23.346;2022-12-29T14:57:29;25.60;;;19.63;;
6679;SDS011;3376;42.664;23.346;2022-12-29T15:00:14;24.67;;;17.87;;
6679;SDS011;3376;42.664;23.346;2022-12-29T15:02:45;25.40;;;19.37;;
6679;SDS011;3376;42.664;23.346;2022-12-29T15:05:26;28.77;;;19.47;;
6679;SDS011;3376;42.664;23.346;2022-12-29T15:07:56;22.93;;;18.10;;
6679;SDS011;3376;42.664;23.346;2022-12-29T15:10:24;26.53;;;19.10;;